createdAt,value
2019-04-22T00:00:37.260Z,9.20
2019-04-22T00:01:40.136Z,9.20
2019-04-22T00:02:50.314Z,9.20
2019-04-22T00:03:56.568Z,9.20
2019-04-22T00:05:07.308Z,9.20
2019-04-22T00:06:25.541Z,9.20
2019-04-22T00:07:37.247Z,9.20
2019-04-22T00:08:44.568Z,9.20
2019-04-22T00:09:58.499Z,9.20
2019-04-22T00:11:06.380Z,9.20
2019-04-22T00:12:13.817Z,9.20
2019-04-22T00:13:22.208Z,9.20
2019-04-22T00:14:17.865Z,9.20
2019-04-22T00:15:29.168Z,9.20
2019-04-22T00:16:47.495Z,9.20
2019-04-22T00:17:55.138Z,9.20
2019-04-22T00:19:11.479Z,9.20
2019-04-22T00:21:13.015Z,9.20
2019-04-22T00:22:22.229Z,9.10
2019-04-22T00:23:31.344Z,9.10
2019-04-22T00:25:10.451Z,9.10
2019-04-22T00:25:56.080Z,9.10
2019-04-22T00:28:12.765Z,9.10
2019-04-22T00:29:39.477Z,9.10
2019-04-22T00:31:34.723Z,9.10
2019-04-22T00:32:58.945Z,9.10
2019-04-22T00:34:06.207Z,9.00
2019-04-22T00:35:13.328Z,9.00
2019-04-22T00:36:23.283Z,9.10
2019-04-22T00:37:35.734Z,9.00
2019-04-22T00:38:41.699Z,9.00
2019-04-22T00:39:46.670Z,9.00
2019-04-22T00:40:53.887Z,9.00
2019-04-22T00:42:02.013Z,9.00
2019-04-22T00:43:07.003Z,9.00
2019-04-22T00:44:19.077Z,9.00
2019-04-22T00:45:23.615Z,9.00
2019-04-22T00:46:25.266Z,9.00
2019-04-22T00:47:36.451Z,9.00
2019-04-22T00:48:51.192Z,9.00
2019-04-22T00:51:10.840Z,9.00
2019-04-22T00:52:12.494Z,9.00
2019-04-22T00:53:19.685Z,9.00
2019-04-22T00:54:21.548Z,9.00
2019-04-22T00:55:28.862Z,9.00
2019-04-22T00:56:34.169Z,9.00
2019-04-22T00:57:42.120Z,9.00
2019-04-22T00:58:46.666Z,9.00
2019-04-22T01:00:00.336Z,9.00
2019-04-22T01:01:09.061Z,9.00
2019-04-22T01:02:13.125Z,9.00
2019-04-22T01:03:26.937Z,9.10
2019-04-22T01:04:35.106Z,9.00
2019-04-22T01:05:43.744Z,9.00
2019-04-22T01:06:38.641Z,9.00
2019-04-22T01:07:49.907Z,9.00
2019-04-22T01:09:02.604Z,9.10
2019-04-22T01:11:11.263Z,9.10
2019-04-22T01:12:15.595Z,9.10
2019-04-22T01:13:24.924Z,9.10
2019-04-22T01:14:28.076Z,9.10
2019-04-22T01:15:40.441Z,9.10
2019-04-22T01:16:48.487Z,9.10
2019-04-22T01:18:03.615Z,9.10
2019-04-22T01:19:00.556Z,9.10
2019-04-22T01:20:24.506Z,9.10
2019-04-22T01:22:20.611Z,9.10
2019-04-22T01:23:29.633Z,9.10
2019-04-22T01:24:32.358Z,9.10
2019-04-22T01:25:42.126Z,9.00
2019-04-22T01:26:43.589Z,9.00
2019-04-22T01:27:53.070Z,9.10
2019-04-22T01:29:02.500Z,9.10
2019-04-22T01:30:07.253Z,9.10
2019-04-22T01:31:04.796Z,9.10
2019-04-22T01:32:15.453Z,9.00
2019-04-22T01:33:21.553Z,9.10
2019-04-22T01:34:36.381Z,9.00
2019-04-22T01:35:38.636Z,9.00
2019-04-22T01:36:57.787Z,9.10
2019-04-22T01:37:59.781Z,9.10
2019-04-22T01:39:16.347Z,9.00
2019-04-22T01:40:25.382Z,9.00
2019-04-22T01:41:42.449Z,9.00
2019-04-22T01:42:57.583Z,9.00
2019-04-22T01:44:07.141Z,9.00
2019-04-22T01:45:10.654Z,9.00
2019-04-22T01:46:16.893Z,9.00
2019-04-22T01:47:29.972Z,9.00
2019-04-22T01:48:26.893Z,9.00
2019-04-22T01:49:34.432Z,9.00
2019-04-22T01:50:39.475Z,9.00
2019-04-22T01:52:59.016Z,9.00
2019-04-22T01:54:05.222Z,9.10
2019-04-22T01:55:22.294Z,9.00
2019-04-22T01:56:20.082Z,9.00
2019-04-22T01:57:22.878Z,9.00
2019-04-22T01:58:28.874Z,9.10
2019-04-22T01:59:31.312Z,9.10
2019-04-22T02:00:58.258Z,9.10
2019-04-22T02:02:07.896Z,9.10
2019-04-22T02:03:10.542Z,9.10
2019-04-22T02:04:30.229Z,9.10
2019-04-22T02:05:24.417Z,9.10
2019-04-22T02:06:39.157Z,9.10
2019-04-22T02:07:42.118Z,9.10
2019-04-22T02:08:53.320Z,9.10
2019-04-22T02:10:00.417Z,9.10
2019-04-22T02:11:03.982Z,9.10
2019-04-22T02:12:14.661Z,9.00
2019-04-22T02:13:15.667Z,9.00
2019-04-22T02:14:28.796Z,9.00
2019-04-22T02:15:23.376Z,9.00
2019-04-22T02:16:36.169Z,9.00
2019-04-22T02:18:58.020Z,9.00
2019-04-22T02:19:57.560Z,9.00
2019-04-22T02:21:05.456Z,9.00
2019-04-22T02:22:11.521Z,9.00
2019-04-22T02:24:35.274Z,9.00
2019-04-22T02:25:43.647Z,9.00
2019-04-22T02:26:40.659Z,9.00
2019-04-22T02:27:55.505Z,8.90
2019-04-22T02:28:58.103Z,8.90
2019-04-22T02:29:57.860Z,8.90
2019-04-22T02:31:25.871Z,8.90
2019-04-22T02:32:27.781Z,8.90
2019-04-22T02:35:58.223Z,8.90
2019-04-22T02:36:43.091Z,8.90
2019-04-22T02:37:54.481Z,8.90
2019-04-22T02:39:05.617Z,8.90
2019-04-22T02:40:13.997Z,8.90
2019-04-22T02:42:45.631Z,8.90
2019-04-22T02:44:42.105Z,8.90
2019-04-22T02:46:23.256Z,8.90
2019-04-22T02:47:38.863Z,8.90
2019-04-22T02:48:18.874Z,8.90
2019-04-22T02:49:18.872Z,8.90
2019-04-22T02:54:56.131Z,8.90
2019-04-22T02:56:13.368Z,8.90
2019-04-22T02:57:19.408Z,8.90
2019-04-22T02:58:27.635Z,8.90
2019-04-22T02:59:27.943Z,8.90
2019-04-22T03:00:38.958Z,8.90
2019-04-22T03:01:36.160Z,8.90
2019-04-22T03:02:50.718Z,8.90
2019-04-22T03:04:03.381Z,8.90
2019-04-22T03:06:15.421Z,8.90
2019-04-22T03:07:09.054Z,8.90
2019-04-22T03:08:23.977Z,8.90
2019-04-22T03:10:47.372Z,8.90
2019-04-22T03:11:50.434Z,8.80
2019-04-22T03:12:41.216Z,8.90
2019-04-22T03:13:55.712Z,8.90
2019-04-22T03:14:56.315Z,8.80
2019-04-22T03:17:15.953Z,8.90
2019-04-22T03:18:29.074Z,8.80
2019-04-22T03:20:39.476Z,8.80
2019-04-22T03:21:40.563Z,8.80
2019-04-22T03:22:49.297Z,8.80
2019-04-22T03:25:39.861Z,8.80
2019-04-22T03:27:07.817Z,8.80
2019-04-22T03:28:18.870Z,8.80
2019-04-22T03:29:30.666Z,8.80
2019-04-22T03:30:59.299Z,8.80
2019-04-22T03:32:18.063Z,8.80
2019-04-22T03:33:19.382Z,8.80
2019-04-22T03:35:31.605Z,8.80
2019-04-22T03:36:42.186Z,8.80
2019-04-22T03:38:43.894Z,8.80
2019-04-22T03:39:45.488Z,8.80
2019-04-22T03:43:09.179Z,8.80
2019-04-22T03:45:20.266Z,8.80
2019-04-22T03:46:14.799Z,8.80
2019-04-22T03:47:29.974Z,8.80
2019-04-22T03:48:38.185Z,8.70
2019-04-22T03:51:12.076Z,8.80
2019-04-22T03:52:07.382Z,8.80
2019-04-22T03:53:09.806Z,8.80
2019-04-22T03:54:29.798Z,8.80
2019-04-22T03:56:36.557Z,8.80
2019-04-22T03:58:32.397Z,8.70
2019-04-22T03:59:45.967Z,8.80
2019-04-22T04:02:13.687Z,8.80
2019-04-22T04:03:04.975Z,8.80
2019-04-22T04:04:19.213Z,8.80
2019-04-22T04:05:22.184Z,8.80
2019-04-22T04:06:36.633Z,8.80
2019-04-22T04:07:40.662Z,8.90
2019-04-22T04:09:49.994Z,8.90
2019-04-22T04:10:53.228Z,8.90
2019-04-22T04:12:12.286Z,8.90
2019-04-22T04:13:12.203Z,8.90
2019-04-22T04:15:30.097Z,9.00
2019-04-22T04:17:48.942Z,9.00
2019-04-22T04:18:56.149Z,9.10
2019-04-22T04:20:05.872Z,9.10
2019-04-22T04:21:12.513Z,9.10
2019-04-22T04:22:19.573Z,9.10
2019-04-22T04:23:16.774Z,9.10
2019-04-22T04:24:42.283Z,9.20
2019-04-22T04:26:45.771Z,9.20
2019-04-22T04:27:54.114Z,9.20
2019-04-22T04:30:12.817Z,9.30
2019-04-22T04:31:00.604Z,9.30
2019-04-22T04:32:24.268Z,9.30
2019-04-22T04:33:18.452Z,9.30
2019-04-22T04:34:30.839Z,9.40
2019-04-22T04:35:50.586Z,9.30
2019-04-22T04:36:34.728Z,9.40
2019-04-22T04:37:52.442Z,9.40
2019-04-22T04:38:51.807Z,9.40
2019-04-22T04:40:05.721Z,9.40
2019-04-22T04:41:06.367Z,9.40
2019-04-22T04:42:23.084Z,9.40
2019-04-22T04:43:35.591Z,9.40
2019-04-22T04:46:58.471Z,9.50
2019-04-22T04:48:03.874Z,9.50
2019-04-22T04:49:19.411Z,9.50
2019-04-22T04:50:18.491Z,9.50
2019-04-22T04:54:05.836Z,9.50
2019-04-22T04:55:03.998Z,9.50
2019-04-22T04:55:53.282Z,9.50
2019-04-22T04:59:33.242Z,9.60
2019-04-22T05:01:44.957Z,9.70
2019-04-22T05:03:04.874Z,9.60
2019-04-22T05:03:57.808Z,9.70
2019-04-22T05:05:08.270Z,9.70
2019-04-22T05:06:07.479Z,9.70
2019-04-22T05:07:19.808Z,9.70
2019-04-22T05:08:32.989Z,9.70
2019-04-22T05:09:26.226Z,9.70
2019-04-22T05:10:44.798Z,9.70
2019-04-22T05:12:01.910Z,9.70
2019-04-22T05:15:03.978Z,9.80
2019-04-22T05:16:25.466Z,9.80
2019-04-22T05:17:18.251Z,9.80
2019-04-22T05:18:20.801Z,9.90
2019-04-22T05:19:25.636Z,9.80
2019-04-22T05:22:07.628Z,9.90
2019-04-22T05:23:30.009Z,9.90
2019-04-22T05:25:48.636Z,9.90
2019-04-22T05:26:27.726Z,9.90
2019-04-22T05:27:05.588Z,9.90
2019-04-22T05:28:11.713Z,10.00
2019-04-22T05:29:41.941Z,10.00
2019-04-22T05:31:43.573Z,10.10
2019-04-22T05:32:47.359Z,10.10
2019-04-22T05:34:05.497Z,10.10
2019-04-22T05:35:09.916Z,10.20
2019-04-22T05:37:29.994Z,10.30
2019-04-22T05:38:40.883Z,10.30
2019-04-22T05:39:44.666Z,10.30
2019-04-22T05:40:49.877Z,10.30
2019-04-22T05:43:07.986Z,10.30
2019-04-22T05:44:14.464Z,10.30
2019-04-22T05:45:25.202Z,10.40
2019-04-22T05:46:34.585Z,10.40
2019-04-22T05:47:46.280Z,10.40
2019-04-22T05:48:55.401Z,10.40
2019-04-22T05:49:54.664Z,10.40
2019-04-22T05:51:10.268Z,10.40
2019-04-22T05:52:21.222Z,10.40
2019-04-22T05:53:34.202Z,10.40
2019-04-22T05:56:16.313Z,10.50
2019-04-22T05:57:18.071Z,10.60
2019-04-22T05:58:25.843Z,10.60
2019-04-22T06:01:11.811Z,10.60
2019-04-22T06:03:07.218Z,10.70
2019-04-22T06:04:11.491Z,10.70
2019-04-22T06:05:19.646Z,10.70
2019-04-22T06:06:33.388Z,10.70
2019-04-22T06:07:37.370Z,10.80
2019-04-22T06:08:45.605Z,10.80
2019-04-22T06:10:02.348Z,10.90
2019-04-22T06:11:09.899Z,10.90
2019-04-22T06:12:17.097Z,10.90
2019-04-22T06:13:27.662Z,11.00
2019-04-22T06:14:37.060Z,11.00
2019-04-22T06:15:44.165Z,11.10
2019-04-22T06:17:08.198Z,11.10
2019-04-22T06:19:31.342Z,11.20
2019-04-22T06:22:25.290Z,11.20
2019-04-22T06:22:46.300Z,11.30
2019-04-22T06:23:18.660Z,11.30
2019-04-22T06:24:42.372Z,11.30
2019-04-22T06:25:59.070Z,11.30
2019-04-22T06:28:18.082Z,11.40
2019-04-22T06:29:19.629Z,11.40
2019-04-22T06:30:43.096Z,11.40
2019-04-22T06:32:51.861Z,11.40
2019-04-22T06:34:02.293Z,11.40
2019-04-22T06:35:19.836Z,11.50
2019-04-22T06:36:15.594Z,11.50
2019-04-22T06:37:43.433Z,11.50
2019-04-22T06:38:59.144Z,11.60
2019-04-22T06:42:42.992Z,11.70
2019-04-22T06:43:56.331Z,11.80
2019-04-22T06:45:02.784Z,11.80
2019-04-22T06:46:06.810Z,11.80
2019-04-22T06:47:25.237Z,11.90
2019-04-22T06:48:26.472Z,12.00
2019-04-22T06:49:35.393Z,12.00
2019-04-22T06:50:41.758Z,12.10
2019-04-22T06:53:23.897Z,12.20
2019-04-22T06:54:32.660Z,12.20
2019-04-22T06:55:45.578Z,12.30
2019-04-22T06:56:54.714Z,12.30
2019-04-22T06:58:10.357Z,12.30
2019-04-22T07:00:53.132Z,12.40
2019-04-22T07:02:11.625Z,12.50
2019-04-22T07:04:19.715Z,12.60
2019-04-22T07:05:37.676Z,12.60
2019-04-22T07:06:52.777Z,12.70
2019-04-22T07:07:53.476Z,12.70
2019-04-22T07:09:20.968Z,12.80
2019-04-22T07:10:18.275Z,12.80
2019-04-22T07:11:06.265Z,12.80
2019-04-22T07:12:24.805Z,12.80
2019-04-22T07:14:18.090Z,12.90
2019-04-22T07:15:42.382Z,12.90
2019-04-22T07:16:39.449Z,12.90
2019-04-22T07:17:49.198Z,12.90
2019-04-22T07:18:49.806Z,12.90
2019-04-22T07:19:57.850Z,12.90
2019-04-22T07:21:00.999Z,13.00
2019-04-22T07:24:59.254Z,13.00
2019-04-22T07:26:06.038Z,13.00
2019-04-22T07:29:25.291Z,13.10
2019-04-22T07:30:35.008Z,13.10
2019-04-22T07:31:44.427Z,13.10
2019-04-22T07:33:58.029Z,13.10
2019-04-22T07:35:08.570Z,13.10
2019-04-22T07:36:30.732Z,13.20
2019-04-22T07:37:29.694Z,13.20
2019-04-22T07:38:26.403Z,13.30
2019-04-22T07:39:30.868Z,13.40
2019-04-22T07:40:38.988Z,13.40
2019-04-22T07:41:45.992Z,13.50
2019-04-22T07:42:48.165Z,13.60
2019-04-22T07:44:13.386Z,13.70
2019-04-22T07:45:04.962Z,13.70
2019-04-22T07:46:13.703Z,13.80
2019-04-22T07:48:35.745Z,13.80
2019-04-22T07:50:54.496Z,13.90
2019-04-22T07:52:03.675Z,13.80
2019-04-22T07:53:21.853Z,13.80
2019-04-22T07:54:42.819Z,13.80
2019-04-22T07:55:48.984Z,13.80
2019-04-22T07:57:07.202Z,13.80
2019-04-22T07:58:02.053Z,13.80
2019-04-22T07:59:09.518Z,13.80
2019-04-22T08:02:32.049Z,13.90
2019-04-22T08:03:47.714Z,14.00
2019-04-22T08:04:54.212Z,14.00
2019-04-22T08:05:58.732Z,14.10
2019-04-22T08:08:13.190Z,14.10
2019-04-22T08:09:20.292Z,14.20
2019-04-22T08:10:39.069Z,14.20
2019-04-22T08:12:45.672Z,14.40
2019-04-22T08:14:29.755Z,14.40
2019-04-22T08:15:01.934Z,14.60
2019-04-22T08:16:10.364Z,14.60
2019-04-22T08:17:43.085Z,14.70
2019-04-22T08:18:28.948Z,14.80
2019-04-22T08:20:50.384Z,14.80
2019-04-22T08:21:59.965Z,14.80
2019-04-22T08:23:04.881Z,14.80
2019-04-22T08:24:06.308Z,14.80
2019-04-22T08:25:10.060Z,14.80
2019-04-22T08:26:19.322Z,14.80
2019-04-22T08:27:30.411Z,14.70
2019-04-22T08:29:58.690Z,14.70
2019-04-22T08:31:10.564Z,14.60
2019-04-22T08:32:05.044Z,14.70
2019-04-22T08:33:22.152Z,14.60
2019-04-22T08:37:22.756Z,14.60
2019-04-22T08:38:10.399Z,14.60
2019-04-22T08:39:16.784Z,14.60
2019-04-22T08:40:10.266Z,14.60
2019-04-22T08:43:36.427Z,14.60
2019-04-22T08:43:51.433Z,14.50
2019-04-22T08:45:50.029Z,14.60
2019-04-22T08:47:04.756Z,14.60
2019-04-22T08:48:12.973Z,14.60
2019-04-22T08:49:10.138Z,14.60
2019-04-22T08:50:39.427Z,14.60
2019-04-22T08:51:40.361Z,14.60
2019-04-22T08:52:41.806Z,14.60
2019-04-22T08:55:08.131Z,14.70
2019-04-22T08:56:23.451Z,14.70
2019-04-22T08:57:23.780Z,14.80
2019-04-22T08:58:29.353Z,14.90
2019-04-22T08:59:38.105Z,14.90
2019-04-22T09:01:05.087Z,15.00
2019-04-22T09:01:57.430Z,15.20
2019-04-22T09:03:04.647Z,15.30
2019-04-22T09:04:10.098Z,15.30
2019-04-22T09:05:39.177Z,15.40
2019-04-22T09:06:39.974Z,15.50
2019-04-22T09:07:36.845Z,15.50
2019-04-22T09:08:55.220Z,15.60
2019-04-22T09:10:05.235Z,15.60
2019-04-22T09:11:16.455Z,15.70
2019-04-22T09:12:24.631Z,15.70
2019-04-22T09:13:30.032Z,15.70
2019-04-22T09:15:48.773Z,15.70
2019-04-22T09:17:08.406Z,15.80
2019-04-22T09:18:06.776Z,15.80
2019-04-22T09:19:06.583Z,15.80
2019-04-22T09:20:26.564Z,15.80
2019-04-22T09:21:35.633Z,15.90
2019-04-22T09:22:33.543Z,15.90
2019-04-22T09:23:58.314Z,15.90
2019-04-22T09:25:03.882Z,15.90
2019-04-22T09:25:53.319Z,15.90
2019-04-22T09:27:23.349Z,16.00
2019-04-22T09:28:24.392Z,16.00
2019-04-22T09:30:46.764Z,16.00
2019-04-22T09:32:01.680Z,16.00
2019-04-22T09:34:15.749Z,16.10
2019-04-22T09:34:33.840Z,16.10
2019-04-22T09:35:48.277Z,16.10
2019-04-22T09:36:58.924Z,16.20
2019-04-22T09:38:18.948Z,16.30
2019-04-22T09:39:19.375Z,16.40
2019-04-22T09:40:41.872Z,16.50
2019-04-22T09:41:28.452Z,16.50
2019-04-22T09:42:39.565Z,16.50
2019-04-22T09:43:47.153Z,16.50
2019-04-22T09:44:47.513Z,16.50
2019-04-22T09:45:58.131Z,16.60
2019-04-22T09:47:06.223Z,16.60
2019-04-22T09:48:33.565Z,16.60
2019-04-22T09:50:43.289Z,16.70
2019-04-22T09:51:54.139Z,16.70
2019-04-22T09:53:02.399Z,16.70
2019-04-22T09:54:08.990Z,16.70
2019-04-22T09:55:12.460Z,16.70
2019-04-22T09:56:24.089Z,16.70
2019-04-22T09:57:27.520Z,16.80
2019-04-22T09:58:33.579Z,16.80
2019-04-22T09:59:48.461Z,16.80
2019-04-22T10:01:03.033Z,16.80
2019-04-22T10:03:00.795Z,16.90
2019-04-22T10:04:09.994Z,17.00
2019-04-22T10:05:29.389Z,17.00
2019-04-22T10:07:01.278Z,17.10
2019-04-22T10:07:39.526Z,17.10
2019-04-22T10:11:04.939Z,17.20
2019-04-22T10:12:09.896Z,17.20
2019-04-22T10:14:28.030Z,17.20
2019-04-22T10:15:36.252Z,17.20
2019-04-22T10:16:43.773Z,17.20
2019-04-22T10:17:54.540Z,17.20
2019-04-22T10:19:04.708Z,17.20
2019-04-22T10:20:20.297Z,17.20
2019-04-22T10:21:40.570Z,17.30
2019-04-22T10:22:39.378Z,17.30
2019-04-22T10:23:44.300Z,17.30
2019-04-22T10:24:54.976Z,17.40
2019-04-22T10:25:57.314Z,17.40
2019-04-22T10:27:10.106Z,17.50
2019-04-22T10:28:24.829Z,17.50
2019-04-22T10:29:41.601Z,17.60
2019-04-22T10:30:39.077Z,17.70
2019-04-22T10:31:57.539Z,17.70
2019-04-22T10:33:00.799Z,17.80
2019-04-22T10:34:02.652Z,17.80
2019-04-22T10:35:12.194Z,17.90
2019-04-22T10:36:13.125Z,17.90
2019-04-22T10:37:23.423Z,17.90
2019-04-22T10:38:37.868Z,17.90
2019-04-22T10:39:53.329Z,18.00
2019-04-22T10:40:52.556Z,18.10
2019-04-22T10:41:58.839Z,18.10
2019-04-22T10:43:05.249Z,18.10
2019-04-22T10:44:11.291Z,18.20
2019-04-22T10:45:18.683Z,18.20
2019-04-22T10:46:24.460Z,18.30
2019-04-22T10:47:29.798Z,18.40
2019-04-22T10:48:36.600Z,18.40
2019-04-22T10:49:42.444Z,18.50
2019-04-22T10:50:52.624Z,18.60
2019-04-22T10:51:58.436Z,18.60
2019-04-22T10:53:13.221Z,18.60
2019-04-22T10:54:29.318Z,18.60
2019-04-22T10:55:25.815Z,18.70
2019-04-22T10:56:32.758Z,18.70
2019-04-22T10:57:38.980Z,18.70
2019-04-22T10:58:46.552Z,18.80
2019-04-22T10:59:52.277Z,18.80
2019-04-22T11:01:05.216Z,18.90
2019-04-22T11:02:07.435Z,18.90
2019-04-22T11:03:26.518Z,18.90
2019-04-22T11:04:34.460Z,19.00
2019-04-22T11:05:41.959Z,18.90
2019-04-22T11:07:03.831Z,18.90
2019-04-22T11:08:08.158Z,18.90
2019-04-22T11:09:14.235Z,18.80
2019-04-22T11:10:35.291Z,18.80
2019-04-22T11:11:38.452Z,18.80
2019-04-22T11:12:38.005Z,18.70
2019-04-22T11:13:42.134Z,18.60
2019-04-22T11:14:47.562Z,18.60
2019-04-22T11:15:55.605Z,18.60
2019-04-22T11:17:05.253Z,18.60
2019-04-22T11:18:19.741Z,18.60
2019-04-22T11:19:19.477Z,18.60
2019-04-22T11:20:26.055Z,18.60
2019-04-22T11:21:38.284Z,18.70
2019-04-22T11:22:48.903Z,18.70
2019-04-22T11:23:50.509Z,18.70
2019-04-22T11:24:58.986Z,18.70
2019-04-22T11:26:10.065Z,18.70
2019-04-22T11:27:10.941Z,18.80
2019-04-22T11:28:17.956Z,18.80
2019-04-22T11:29:25.463Z,18.90
2019-04-22T11:30:40.710Z,18.90
2019-04-22T11:31:42.312Z,18.80
2019-04-22T11:32:50.751Z,18.90
2019-04-22T11:33:58.520Z,18.90
2019-04-22T11:35:03.728Z,18.90
2019-04-22T11:36:13.542Z,18.90
2019-04-22T11:37:38.631Z,18.90
2019-04-22T11:38:51.154Z,18.90
2019-04-22T11:40:06.880Z,18.80
2019-04-22T11:41:09.155Z,18.80
2019-04-22T11:42:18.245Z,18.80
2019-04-22T11:43:24.001Z,18.80
2019-04-22T11:44:35.302Z,18.80
2019-04-22T11:45:45.414Z,18.80
2019-04-22T11:46:59.132Z,18.90
2019-04-22T11:48:01.401Z,18.90
2019-04-22T11:49:05.976Z,18.90
2019-04-22T11:50:13.497Z,18.90
2019-04-22T11:51:25.495Z,18.90
2019-04-22T11:52:26.985Z,18.80
2019-04-22T11:53:38.657Z,18.80
2019-04-22T11:57:17.018Z,18.70
2019-04-22T11:58:37.236Z,18.60
2019-04-22T12:00:20.966Z,18.50
2019-04-22T12:01:26.677Z,18.50
2019-04-22T12:02:33.144Z,18.60
2019-04-22T12:03:39.902Z,18.60
2019-04-22T12:05:03.689Z,18.60
2019-04-22T12:06:17.967Z,18.60
2019-04-22T12:07:34.801Z,18.70
2019-04-22T12:08:41.549Z,18.70
2019-04-22T12:09:53.419Z,18.80
2019-04-22T12:11:00.317Z,18.80
2019-04-22T12:12:05.696Z,18.70
2019-04-22T12:13:12.383Z,18.70
2019-04-22T12:14:18.269Z,18.70
2019-04-22T12:15:22.784Z,18.70
2019-04-22T12:16:31.601Z,18.70
2019-04-22T12:17:36.297Z,18.70
2019-04-22T12:18:41.098Z,18.70
2019-04-22T12:19:46.390Z,18.70
2019-04-22T12:20:50.949Z,18.70
2019-04-22T12:21:55.244Z,18.70
2019-04-22T12:23:09.441Z,18.70
2019-04-22T12:24:09.115Z,18.60
2019-04-22T12:25:31.986Z,18.70
2019-04-22T12:26:24.978Z,18.70
2019-04-22T12:27:30.006Z,18.70
2019-04-22T12:28:37.143Z,18.80
2019-04-22T12:29:44.856Z,18.80
2019-04-22T12:30:51.150Z,18.80
2019-04-22T12:31:55.650Z,18.90
2019-04-22T12:33:02.308Z,18.90
2019-04-22T12:34:07.894Z,18.80
2019-04-22T12:35:13.531Z,18.80
2019-04-22T12:36:18.340Z,18.80
2019-04-22T12:37:31.940Z,18.80
2019-04-22T12:38:33.447Z,18.80
2019-04-22T12:39:39.146Z,18.80
2019-04-22T12:40:51.296Z,18.90
2019-04-22T12:41:50.779Z,18.80
2019-04-22T12:42:59.784Z,18.90
2019-04-22T12:44:03.314Z,18.90
2019-04-22T12:45:09.958Z,19.00
2019-04-22T12:46:14.531Z,19.00
2019-04-22T12:47:20.150Z,19.00
2019-04-22T12:48:25.455Z,19.00
2019-04-22T12:49:32.221Z,19.00
2019-04-22T12:50:41.805Z,19.00
2019-04-22T12:51:45.391Z,19.00
2019-04-22T12:52:57.693Z,19.00
2019-04-22T12:53:59.387Z,19.00
2019-04-22T12:55:06.064Z,18.90
2019-04-22T12:56:12.699Z,18.90
2019-04-22T12:57:20.689Z,18.90
2019-04-22T12:58:25.471Z,18.80
2019-04-22T12:59:29.977Z,18.80
2019-04-22T13:00:38.423Z,18.70
2019-04-22T13:01:42.828Z,18.70
2019-04-22T13:02:47.323Z,18.70
2019-04-22T13:04:00.248Z,18.60
2019-04-22T13:05:03.979Z,18.60
2019-04-22T13:06:09.788Z,18.60
2019-04-22T13:07:15.659Z,18.60
2019-04-22T13:08:20.103Z,18.70
2019-04-22T13:09:25.228Z,18.70
2019-04-22T13:10:40.618Z,18.80
2019-04-22T13:11:40.377Z,18.90
2019-04-22T13:12:48.949Z,18.90
2019-04-22T13:13:54.663Z,19.00
2019-04-22T13:15:01.090Z,19.10
2019-04-22T13:16:08.886Z,19.10
2019-04-22T13:17:15.371Z,19.20
2019-04-22T13:18:31.058Z,19.30
2019-04-22T13:19:30.250Z,19.30
2019-04-22T13:20:36.954Z,19.30
2019-04-22T13:21:42.624Z,19.30
2019-04-22T13:22:48.903Z,19.30
2019-04-22T13:23:53.342Z,19.30
2019-04-22T13:24:57.933Z,19.30
2019-04-22T13:26:05.148Z,19.30
2019-04-22T13:27:11.224Z,19.20
2019-04-22T13:28:15.503Z,19.20
2019-04-22T13:29:21.203Z,19.20
2019-04-22T13:30:26.613Z,19.20
2019-04-22T13:31:31.238Z,19.20
2019-04-22T13:32:42.819Z,19.20
2019-04-22T13:33:46.513Z,19.10
2019-04-22T13:34:55.425Z,19.10
2019-04-22T13:36:03.731Z,19.10
2019-04-22T13:37:23.251Z,19.10
2019-04-22T13:38:29.036Z,19.00
2019-04-22T13:39:34.824Z,19.00
2019-04-22T13:40:55.860Z,19.00
2019-04-22T13:41:50.270Z,19.00
2019-04-22T13:42:53.419Z,19.00
2019-04-22T13:43:58.063Z,19.00
2019-04-22T13:45:04.043Z,19.00
2019-04-22T13:46:12.337Z,19.00
2019-04-22T13:47:32.287Z,19.00
2019-04-22T13:48:38.830Z,19.10
2019-04-22T13:50:01.130Z,19.10
2019-04-22T13:52:15.395Z,19.10
2019-04-22T13:53:30.413Z,19.10
2019-04-22T13:55:27.276Z,19.10
2019-04-22T13:56:24.867Z,19.10
2019-04-22T13:57:25.174Z,19.10
2019-04-22T13:58:31.547Z,19.10
2019-04-22T13:59:33.475Z,19.10
2019-04-22T14:00:40.560Z,19.20
2019-04-22T14:02:02.357Z,19.20
2019-04-22T14:03:24.647Z,19.30
2019-04-22T14:04:30.638Z,19.30
2019-04-22T14:05:38.053Z,19.30
2019-04-22T14:06:54.510Z,19.30
2019-04-22T14:07:53.151Z,19.30
2019-04-22T14:09:01.140Z,19.20
2019-04-22T14:10:09.125Z,19.10
2019-04-22T14:11:26.148Z,19.00
2019-04-22T14:12:21.760Z,19.00
2019-04-22T14:13:27.925Z,18.80
2019-04-22T14:14:35.401Z,18.80
2019-04-22T14:15:50.871Z,18.70
2019-04-22T14:16:51.029Z,18.60
2019-04-22T14:17:58.766Z,18.60
2019-04-22T14:19:03.331Z,18.50
2019-04-22T14:20:09.014Z,18.50
2019-04-22T14:21:18.808Z,18.50
2019-04-22T14:22:23.186Z,18.40
2019-04-22T14:23:29.007Z,18.40
2019-04-22T14:24:34.320Z,18.40
2019-04-22T14:25:42.992Z,18.50
2019-04-22T14:27:01.657Z,18.50
2019-04-22T14:28:32.815Z,18.50
2019-04-22T14:29:08.025Z,18.60
2019-04-22T14:30:22.195Z,18.60
2019-04-22T14:31:32.884Z,18.70
2019-04-22T14:32:39.604Z,18.70
2019-04-22T14:33:53.598Z,18.80
2019-04-22T14:34:55.301Z,18.90
2019-04-22T14:36:09.751Z,18.90
2019-04-22T14:37:14.346Z,19.00
2019-04-22T14:38:23.888Z,19.00
2019-04-22T14:39:31.088Z,19.00
2019-04-22T14:40:38.569Z,19.10
2019-04-22T14:41:59.265Z,19.20
2019-04-22T14:43:09.910Z,19.30
2019-04-22T14:45:06.878Z,19.40
2019-04-22T14:46:01.633Z,19.50
2019-04-22T14:46:47.534Z,19.70
2019-04-22T14:47:49.522Z,19.80
2019-04-22T14:48:49.789Z,20.00
2019-04-22T14:50:02.791Z,20.20
2019-04-22T14:51:07.632Z,20.50
2019-04-22T14:52:21.590Z,20.80
2019-04-22T14:53:32.330Z,21.10
2019-04-22T14:54:34.593Z,21.40
2019-04-22T14:55:37.831Z,21.70
2019-04-22T14:56:38.285Z,22.00
2019-04-22T14:57:44.263Z,22.40
2019-04-22T14:58:54.960Z,22.70
2019-04-22T14:59:59.796Z,23.00
2019-04-22T15:01:08.591Z,23.30
2019-04-22T15:02:21.479Z,23.60
2019-04-22T15:03:26.104Z,24.00
2019-04-22T15:04:35.097Z,24.20
2019-04-22T15:06:06.316Z,24.50
2019-04-22T15:06:52.834Z,24.80
2019-04-22T15:08:01.287Z,25.10
2019-04-22T15:09:05.899Z,25.40
2019-04-22T15:10:18.277Z,25.70
2019-04-22T15:11:26.810Z,25.90
2019-04-22T15:12:43.705Z,26.20
2019-04-22T15:14:27.658Z,26.50
2019-04-22T15:14:59.823Z,26.70
2019-04-22T15:16:15.884Z,27.00
2019-04-22T15:17:29.132Z,27.10
2019-04-22T15:18:41.916Z,27.40
2019-04-22T15:22:28.171Z,27.70
2019-04-22T15:22:50.576Z,28.00
2019-04-22T15:24:00.663Z,28.20
2019-04-22T15:25:22.826Z,28.30
2019-04-22T15:26:24.442Z,28.50
2019-04-22T15:27:30.927Z,28.70
2019-04-22T15:28:42.418Z,28.80
2019-04-22T15:29:49.387Z,28.90
2019-04-22T15:30:55.579Z,29.00
2019-04-22T15:32:03.022Z,29.00
2019-04-22T15:33:09.717Z,28.90
2019-04-22T15:34:14.363Z,28.80
2019-04-22T15:35:19.492Z,28.70
2019-04-22T15:36:32.399Z,28.60
2019-04-22T15:37:41.425Z,28.40
2019-04-22T15:38:49.149Z,28.10
2019-04-22T15:40:02.883Z,27.80
2019-04-22T15:41:28.568Z,27.50
2019-04-22T15:42:28.756Z,27.10
2019-04-22T15:43:36.950Z,26.70
2019-04-22T15:44:31.878Z,26.40
2019-04-22T15:45:50.888Z,26.10
2019-04-22T15:47:07.073Z,25.80
2019-04-22T15:48:14.650Z,25.60
2019-04-22T15:49:34.112Z,25.30
2019-04-22T15:50:36.859Z,25.20
2019-04-22T15:51:40.881Z,25.00
2019-04-22T15:52:53.786Z,24.70
2019-04-22T15:54:03.461Z,24.40
2019-04-22T15:55:44.993Z,24.20
2019-04-22T15:56:28.464Z,23.90
2019-04-22T15:57:28.971Z,23.70
2019-04-22T15:58:35.583Z,23.50
2019-04-22T16:00:05.416Z,23.30
2019-04-22T16:01:10.323Z,23.20
2019-04-22T16:02:10.031Z,23.10
2019-04-22T16:03:16.397Z,22.90
2019-04-22T16:04:26.437Z,22.80
2019-04-22T16:05:34.162Z,22.80
2019-04-22T16:06:38.990Z,22.90
2019-04-22T16:07:45.835Z,22.90
2019-04-22T16:09:03.061Z,22.90
2019-04-22T16:09:57.437Z,22.80
2019-04-22T16:11:12.106Z,22.70
2019-04-22T16:12:35.878Z,22.60
2019-04-22T16:13:38.044Z,22.50
2019-04-22T16:14:59.672Z,22.40
2019-04-22T16:16:12.391Z,22.30
2019-04-22T16:17:22.298Z,22.10
2019-04-22T16:20:03.633Z,21.80
2019-04-22T16:24:24.354Z,21.10
2019-04-22T16:30:05.477Z,20.10
2019-04-22T16:32:51.644Z,19.80
2019-04-22T16:32:57.219Z,19.90
2019-04-22T16:34:13.285Z,19.60
2019-04-22T16:37:14.640Z,19.30
2019-04-22T16:42:11.887Z,18.80
2019-04-22T16:43:28.756Z,18.70
2019-04-22T16:46:13.892Z,18.50
2019-04-22T16:47:33.309Z,18.40
2019-04-22T16:51:32.118Z,18.20
2019-04-22T16:52:57.886Z,18.10
2019-04-22T16:54:04.436Z,18.00
2019-04-22T16:55:10.675Z,18.00
2019-04-22T16:56:26.717Z,17.90
2019-04-22T16:57:54.716Z,17.80